18 Apr 2019 14:46 UTC 2019108+14:46 UTC

Overview Datums Bench Marks Data Query Site Visit Daily QC Messages Attributes

130: GBRA Station #2

28° 24' 26" N   96° 42' 43" W
GBRA2
Guadalupe Blanco River Authority (GBRA) GBRA

Station Information

GBRA Station #2
GBRA Station #2
more pictures
 
Station Name:GBRA Station #2
DNR ID:130
Location:28° 24' 26" N, 96° 42' 43" W

Water Level Forecasts

Latest Observations

Series Metric English Marine Observed at
Water Temperature 22.2 °C 72.0 °F 72.0 °F Apr 18 09:36 CDT
00h07m ago
Salinity 12.100 psu 12.100 psu 12.100 psu Apr 18 09:36 CDT
00h07m ago

Maps

GBRA Station #2
All Stations in Area
Entire Network
 

Recent Observations

Date/Time Water
Temp (°F)
Sal (psu)
Apr 18 09:00 CDT 72.0 12.300
Apr 18 08:00 CDT 71.8 12.300
Apr 18 07:00 CDT 72.3 12.300
Apr 18 06:00 CDT 72.5 11.700
Apr 18 05:00 CDT 73.2 12.000
Apr 18 04:00 CDT 73.4 12.100
Apr 18 03:00 CDT 73.4 12.400
Apr 18 02:00 CDT 73.6 10.600
Apr 18 01:00 CDT 73.6 10.500
Apr 18 00:00 CDT 73.8 10.300
Apr 17 23:00 CDT 73.8 10.200
Apr 17 22:00 CDT 73.9 10.100
Apr 17 21:00 CDT 73.9 10.200
Apr 17 20:00 CDT 74.1 10.000
Apr 17 19:00 CDT 74.1 10.100
Apr 17 18:00 CDT 74.3 9.500
Apr 17 17:00 CDT 74.1 9.400
Apr 17 16:00 CDT 74.1 9.500
Apr 17 15:00 CDT 74.1 9.700
Apr 17 14:00 CDT 73.9 9.500
Apr 17 13:00 CDT 73.8 9.400
Apr 17 12:00 CDT 73.6 9.500
Apr 17 11:00 CDT 73.0 9.200
Apr 17 10:00 CDT 72.7 9.300
Apr 17 09:00 CDT 72.9 9.100

Historical Data Availability